sensor_id;sensor_type;location;lat;lon;timestamp;temperature;humidity
30001;DHT22;16845;48.670;9.000;2022-09-12T00:02:02;12.10;99.90
30001;DHT22;16845;48.670;9.000;2022-09-12T00:04:29;12.00;99.90
30001;DHT22;16845;48.670;9.000;2022-09-12T00:06:57;12.00;99.90
30001;DHT22;16845;48.670;9.000;2022-09-12T00:09:25;12.00;99.90
30001;DHT22;16845;48.670;9.000;2022-09-12T00:11:53;12.00;99.90
30001;DHT22;16845;48.670;9.000;2022-09-12T00:14:21;11.90;99.90
30001;DHT22;16845;48.670;9.000;2022-09-12T00:16:50;12.00;99.90
30001;DHT22;16845;48.670;9.000;2022-09-12T00:19:18;12.00;99.90
30001;DHT22;16845;48.670;9.000;2022-09-12T00:21:46;12.00;99.90
30001;DHT22;16845;48.670;9.000;2022-09-12T00:24:14;12.00;99.90
30001;DHT22;16845;48.670;9.000;2022-09-12T00:26:42;12.00;99.90
30001;DHT22;16845;48.670;9.000;2022-09-12T00:29:13;12.10;99.90
30001;DHT22;16845;48.670;9.000;2022-09-12T00:31:42;12.00;99.90
30001;DHT22;16845;48.670;9.000;2022-09-12T00:34:12;12.00;99.90
30001;DHT22;16845;48.670;9.000;2022-09-12T00:36:40;11.90;99.90
30001;DHT22;16845;48.670;9.000;2022-09-12T00:39:13;11.90;99.90
30001;DHT22;16845;48.670;9.000;2022-09-12T00:41:42;11.90;99.90
30001;DHT22;16845;48.670;9.000;2022-09-12T00:44:41;11.90;99.90
30001;DHT22;16845;48.670;9.000;2022-09-12T00:47:13;11.80;99.90
30001;DHT22;16845;48.670;9.000;2022-09-12T00:49:49;11.70;99.90
30001;DHT22;16845;48.670;9.000;2022-09-12T00:52:23;11.70;99.90
30001;DHT22;16845;48.670;9.000;2022-09-12T00:54:54;11.80;99.90
30001;DHT22;16845;48.670;9.000;2022-09-12T00:57:28;11.80;99.90
30001;DHT22;16845;48.670;9.000;2022-09-12T00:59:59;11.90;99.90
30001;DHT22;16845;48.670;9.000;2022-09-12T01:02:29;11.80;99.90
30001;DHT22;16845;48.670;9.000;2022-09-12T01:04:59;11.80;99.90
30001;DHT22;16845;48.670;9.000;2022-09-12T01:07:27;11.80;99.90
30001;DHT22;16845;48.670;9.000;2022-09-12T01:09:55;11.70;99.90
30001;DHT22;16845;48.670;9.000;2022-09-12T01:12:23;11.70;99.90
30001;DHT22;16845;48.670;9.000;2022-09-12T01:14:52;11.70;99.90
30001;DHT22;16845;48.670;9.000;2022-09-12T01:17:20;11.60;99.90
30001;DHT22;16845;48.670;9.000;2022-09-12T01:20:12;11.60;99.90
30001;DHT22;16845;48.670;9.000;2022-09-12T01:23:02;11.60;99.90
30001;DHT22;16845;48.670;9.000;2022-09-12T01:25:42;11.70;99.90
30001;DHT22;16845;48.670;9.000;2022-09-12T01:28:44;11.60;99.90
30001;DHT22;16845;48.670;9.000;2022-09-12T01:31:23;11.60;99.90
30001;DHT22;16845;48.670;9.000;2022-09-12T01:33:59;11.60;99.90
30001;DHT22;16845;48.670;9.000;2022-09-12T01:36:38;11.60;99.90
30001;DHT22;16845;48.670;9.000;2022-09-12T01:39:13;11.60;99.90
30001;DHT22;16845;48.670;9.000;2022-09-12T01:41:49;11.50;99.90
30001;DHT22;16845;48.670;9.000;2022-09-12T01:44:26;11.60;99.90
30001;DHT22;16845;48.670;9.000;2022-09-12T01:47:02;11.50;99.90
30001;DHT22;16845;48.670;9.000;2022-09-12T01:49:39;11.50;99.90
30001;DHT22;16845;48.670;9.000;2022-09-12T01:52:16;11.50;99.90
30001;DHT22;16845;48.670;9.000;2022-09-12T01:54:50;11.50;99.90
30001;DHT22;16845;48.670;9.000;2022-09-12T01:57:27;11.50;99.90
30001;DHT22;16845;48.670;9.000;2022-09-12T01:59:58;11.50;99.90
30001;DHT22;16845;48.670;9.000;2022-09-12T02:02:34;11.50;99.90
30001;DHT22;16845;48.670;9.000;2022-09-12T02:05:05;11.50;99.90
30001;DHT22;16845;48.670;9.000;2022-09-12T02:07:38;11.40;99.90
30001;DHT22;16845;48.670;9.000;2022-09-12T02:10:12;11.40;99.90
30001;DHT22;16845;48.670;9.000;2022-09-12T02:12:45;11.40;99.90
30001;DHT22;16845;48.670;9.000;2022-09-12T02:15:17;11.30;99.90
30001;DHT22;16845;48.670;9.000;2022-09-12T02:17:49;11.30;99.90
30001;DHT22;16845;48.670;9.000;2022-09-12T02:20:21;11.30;99.90
30001;DHT22;16845;48.670;9.000;2022-09-12T02:23:12;11.20;99.90
30001;DHT22;16845;48.670;9.000;2022-09-12T02:25:43;11.20;99.90
30001;DHT22;16845;48.670;9.000;2022-09-12T02:28:14;11.10;99.90
30001;DHT22;16845;48.670;9.000;2022-09-12T02:30:48;11.20;99.90
30001;DHT22;16845;48.670;9.000;2022-09-12T02:33:23;11.20;99.90
30001;DHT22;16845;48.670;9.000;2022-09-12T02:35:57;11.30;99.90
30001;DHT22;16845;48.670;9.000;2022-09-12T02:38:30;11.20;99.90
30001;DHT22;16845;48.670;9.000;2022-09-12T02:41:00;11.20;99.90
30001;DHT22;16845;48.670;9.000;2022-09-12T02:43:28;11.10;99.90
30001;DHT22;16845;48.670;9.000;2022-09-12T02:45:56;11.20;99.90
30001;DHT22;16845;48.670;9.000;2022-09-12T02:48:26;11.20;99.90
30001;DHT22;16845;48.670;9.000;2022-09-12T02:50:55;11.10;99.90
30001;DHT22;16845;48.670;9.000;2022-09-12T02:53:25;11.20;99.90
30001;DHT22;16845;48.670;9.000;2022-09-12T02:55:53;11.20;99.90
30001;DHT22;16845;48.670;9.000;2022-09-12T02:58:24;11.10;99.90
30001;DHT22;16845;48.670;9.000;2022-09-12T03:00:56;11.10;99.90
30001;DHT22;16845;48.670;9.000;2022-09-12T03:03:40;11.00;99.90
30001;DHT22;16845;48.670;9.000;2022-09-12T03:06:17;11.10;99.90
30001;DHT22;16845;48.670;9.000;2022-09-12T03:08:58;11.10;99.90
30001;DHT22;16845;48.670;9.000;2022-09-12T03:11:42;11.10;99.90
30001;DHT22;16845;48.670;9.000;2022-09-12T03:14:26;11.10;99.90
30001;DHT22;16845;48.670;9.000;2022-09-12T03:17:03;11.10;99.90
30001;DHT22;16845;48.670;9.000;2022-09-12T03:19:49;11.10;99.90
30001;DHT22;16845;48.670;9.000;2022-09-12T03:22:24;11.10;99.90
30001;DHT22;16845;48.670;9.000;2022-09-12T03:24:59;11.10;99.90
30001;DHT22;16845;48.670;9.000;2022-09-12T03:27:33;11.00;99.90
30001;DHT22;16845;48.670;9.000;2022-09-12T03:30:04;11.10;99.90
30001;DHT22;16845;48.670;9.000;2022-09-12T03:32:44;11.10;99.90
30001;DHT22;16845;48.670;9.000;2022-09-12T03:35:15;11.00;99.90
30001;DHT22;16845;48.670;9.000;2022-09-12T03:37:50;11.00;99.90
30001;DHT22;16845;48.670;9.000;2022-09-12T03:40:18;11.10;99.90
30001;DHT22;16845;48.670;9.000;2022-09-12T03:42:46;11.00;99.90
30001;DHT22;16845;48.670;9.000;2022-09-12T03:45:14;11.00;99.90
30001;DHT22;16845;48.670;9.000;2022-09-12T03:47:42;10.90;99.90
30001;DHT22;16845;48.670;9.000;2022-09-12T03:50:10;10.90;99.90
30001;DHT22;16845;48.670;9.000;2022-09-12T03:52:39;10.90;99.90
30001;DHT22;16845;48.670;9.000;2022-09-12T03:55:07;10.90;99.90
30001;DHT22;16845;48.670;9.000;2022-09-12T03:57:35;10.80;99.90
30001;DHT22;16845;48.670;9.000;2022-09-12T04:00:04;10.80;99.90
30001;DHT22;16845;48.670;9.000;2022-09-12T04:02:33;10.80;99.90
30001;DHT22;16845;48.670;9.000;2022-09-12T04:05:01;10.80;99.90
30001;DHT22;16845;48.670;9.000;2022-09-12T04:07:29;10.70;99.90
30001;DHT22;16845;48.670;9.000;2022-09-12T04:09:58;10.70;99.90
30001;DHT22;16845;48.670;9.000;2022-09-12T04:12:26;10.70;99.90
30001;DHT22;16845;48.670;9.000;2022-09-12T04:14:55;10.70;99.90
30001;DHT22;16845;48.670;9.000;2022-09-12T04:17:23;10.70;99.90
30001;DHT22;16845;48.670;9.000;2022-09-12T04:19:51;10.60;99.90
30001;DHT22;16845;48.670;9.000;2022-09-12T04:22:19;10.60;99.90
30001;DHT22;16845;48.670;9.000;2022-09-12T04:24:46;10.60;99.90
30001;DHT22;16845;48.670;9.000;2022-09-12T04:27:16;10.60;99.90
30001;DHT22;16845;48.670;9.000;2022-09-12T04:29:44;10.60;99.90
30001;DHT22;16845;48.670;9.000;2022-09-12T04:32:12;10.60;99.90
30001;DHT22;16845;48.670;9.000;2022-09-12T04:34:41;10.50;99.90
30001;DHT22;16845;48.670;9.000;2022-09-12T04:37:09;10.60;99.90
30001;DHT22;16845;48.670;9.000;2022-09-12T04:39:37;10.60;99.90
30001;DHT22;16845;48.670;9.000;2022-09-12T04:42:05;10.50;99.90
30001;DHT22;16845;48.670;9.000;2022-09-12T04:44:34;10.60;99.90
30001;DHT22;16845;48.670;9.000;2022-09-12T04:47:03;10.70;99.90
30001;DHT22;16845;48.670;9.000;2022-09-12T04:49:31;10.60;99.90
30001;DHT22;16845;48.670;9.000;2022-09-12T04:51:59;10.60;99.90
30001;DHT22;16845;48.670;9.000;2022-09-12T04:54:26;10.60;99.90
30001;DHT22;16845;48.670;9.000;2022-09-12T04:56:54;10.50;99.90
30001;DHT22;16845;48.670;9.000;2022-09-12T04:59:22;10.60;99.90
30001;DHT22;16845;48.670;9.000;2022-09-12T05:01:51;10.50;99.90
30001;DHT22;16845;48.670;9.000;2022-09-12T05:04:19;10.50;99.90
30001;DHT22;16845;48.670;9.000;2022-09-12T05:06:47;10.50;99.90
30001;DHT22;16845;48.670;9.000;2022-09-12T05:09:15;10.60;99.90
30001;DHT22;16845;48.670;9.000;2022-09-12T05:11:44;10.60;99.90
30001;DHT22;16845;48.670;9.000;2022-09-12T05:14:30;10.70;99.90
30001;DHT22;16845;48.670;9.000;2022-09-12T05:17:00;10.70;99.90
30001;DHT22;16845;48.670;9.000;2022-09-12T05:19:29;10.70;99.90
30001;DHT22;16845;48.670;9.000;2022-09-12T05:21:57;10.70;99.90
30001;DHT22;16845;48.670;9.000;2022-09-12T05:24:26;10.80;99.90
30001;DHT22;16845;48.670;9.000;2022-09-12T05:26:54;10.80;99.90
30001;DHT22;16845;48.670;9.000;2022-09-12T05:29:21;10.90;99.90
30001;DHT22;16845;48.670;9.000;2022-09-12T05:31:51;10.90;99.90
30001;DHT22;16845;48.670;9.000;2022-09-12T05:34:20;11.00;99.90
30001;DHT22;16845;48.670;9.000;2022-09-12T05:36:49;11.10;99.90
30001;DHT22;16845;48.670;9.000;2022-09-12T05:39:17;11.20;99.90
30001;DHT22;16845;48.670;9.000;2022-09-12T05:41:45;11.30;99.90
30001;DHT22;16845;48.670;9.000;2022-09-12T05:44:13;11.40;99.90
30001;DHT22;16845;48.670;9.000;2022-09-12T05:46:43;11.50;99.90
30001;DHT22;16845;48.670;9.000;2022-09-12T05:49:12;11.60;99.90
30001;DHT22;16845;48.670;9.000;2022-09-12T05:51:43;11.70;99.90
30001;DHT22;16845;48.670;9.000;2022-09-12T05:54:13;11.80;99.90
30001;DHT22;16845;48.670;9.000;2022-09-12T05:56:43;11.90;99.90
30001;DHT22;16845;48.670;9.000;2022-09-12T05:59:13;12.00;99.90
30001;DHT22;16845;48.670;9.000;2022-09-12T06:01:41;12.10;99.90
30001;DHT22;16845;48.670;9.000;2022-09-12T06:04:09;12.20;99.90
30001;DHT22;16845;48.670;9.000;2022-09-12T06:06:39;12.30;99.90
30001;DHT22;16845;48.670;9.000;2022-09-12T06:09:11;12.50;99.90
30001;DHT22;16845;48.670;9.000;2022-09-12T06:11:40;12.60;99.90
30001;DHT22;16845;48.670;9.000;2022-09-12T06:14:10;12.70;99.90
30001;DHT22;16845;48.670;9.000;2022-09-12T06:16:38;12.90;99.90
30001;DHT22;16845;48.670;9.000;2022-09-12T06:19:11;13.00;99.90
30001;DHT22;16845;48.670;9.000;2022-09-12T06:21:39;13.10;99.90
30001;DHT22;16845;48.670;9.000;2022-09-12T06:24:07;13.30;99.90
30001;DHT22;16845;48.670;9.000;2022-09-12T06:26:37;13.60;99.90
30001;DHT22;16845;48.670;9.000;2022-09-12T06:29:05;13.90;99.90
30001;DHT22;16845;48.670;9.000;2022-09-12T06:31:35;14.30;99.90
30001;DHT22;16845;48.670;9.000;2022-09-12T06:34:05;14.60;99.90
30001;DHT22;16845;48.670;9.000;2022-09-12T06:36:35;15.00;99.90
30001;DHT22;16845;48.670;9.000;2022-09-12T06:39:06;15.40;99.90
30001;DHT22;16845;48.670;9.000;2022-09-12T06:41:34;15.80;99.90
30001;DHT22;16845;48.670;9.000;2022-09-12T06:44:12;16.20;99.90
30001;DHT22;16845;48.670;9.000;2022-09-12T06:46:41;16.70;99.90
30001;DHT22;16845;48.670;9.000;2022-09-12T06:49:10;16.80;99.90
30001;DHT22;16845;48.670;9.000;2022-09-12T06:51:38;17.10;99.90
30001;DHT22;16845;48.670;9.000;2022-09-12T06:54:08;17.30;99.90
30001;DHT22;16845;48.670;9.000;2022-09-12T06:56:38;17.50;99.90
30001;DHT22;16845;48.670;9.000;2022-09-12T06:59:06;17.90;99.90
30001;DHT22;16845;48.670;9.000;2022-09-12T07:01:35;18.30;99.90
30001;DHT22;16845;48.670;9.000;2022-09-12T07:04:04;18.70;99.90
30001;DHT22;16845;48.670;9.000;2022-09-12T07:06:35;18.80;99.90
30001;DHT22;16845;48.670;9.000;2022-09-12T07:09:05;19.20;99.90
30001;DHT22;16845;48.670;9.000;2022-09-12T07:11:34;19.60;99.90
30001;DHT22;16845;48.670;9.000;2022-09-12T07:14:05;19.70;99.90
30001;DHT22;16845;48.670;9.000;2022-09-12T07:16:36;20.00;99.90
30001;DHT22;16845;48.670;9.000;2022-09-12T07:19:06;19.90;99.90
30001;DHT22;16845;48.670;9.000;2022-09-12T07:21:34;20.30;99.90
30001;DHT22;16845;48.670;9.000;2022-09-12T07:24:06;20.40;99.90
30001;DHT22;16845;48.670;9.000;2022-09-12T07:26:36;20.60;99.90
30001;DHT22;16845;48.670;9.000;2022-09-12T07:29:04;21.00;99.90
30001;DHT22;16845;48.670;9.000;2022-09-12T07:31:53;20.90;99.90
30001;DHT22;16845;48.670;9.000;2022-09-12T07:34:21;21.00;99.90
30001;DHT22;16845;48.670;9.000;2022-09-12T07:36:49;21.10;99.90
30001;DHT22;16845;48.670;9.000;2022-09-12T07:39:17;20.80;99.90
30001;DHT22;16845;48.670;9.000;2022-09-12T07:41:45;21.10;99.90
30001;DHT22;16845;48.670;9.000;2022-09-12T07:44:13;21.50;99.90
30001;DHT22;16845;48.670;9.000;2022-09-12T07:46:41;21.80;99.90
30001;DHT22;16845;48.670;9.000;2022-09-12T07:49:12;21.80;99.90
30001;DHT22;16845;48.670;9.000;2022-09-12T07:51:40;21.50;99.90
30001;DHT22;16845;48.670;9.000;2022-09-12T07:54:08;21.70;99.90
30001;DHT22;16845;48.670;9.000;2022-09-12T07:56:36;21.80;99.90
30001;DHT22;16845;48.670;9.000;2022-09-12T07:59:05;21.80;99.90
30001;DHT22;16845;48.670;9.000;2022-09-12T08:01:33;21.60;99.90
30001;DHT22;16845;48.670;9.000;2022-09-12T08:04:02;21.30;99.90
30001;DHT22;16845;48.670;9.000;2022-09-12T08:06:32;21.10;99.90
30001;DHT22;16845;48.670;9.000;2022-09-12T08:09:04;21.00;99.90
30001;DHT22;16845;48.670;9.000;2022-09-12T08:11:33;20.80;99.90
30001;DHT22;16845;48.670;9.000;2022-09-12T08:14:01;20.80;99.90
30001;DHT22;16845;48.670;9.000;2022-09-12T08:16:32;21.50;99.90
30001;DHT22;16845;48.670;9.000;2022-09-12T08:19:01;21.50;99.90
30001;DHT22;16845;48.670;9.000;2022-09-12T08:21:32;21.70;99.90
30001;DHT22;16845;48.670;9.000;2022-09-12T08:24:03;21.70;99.90
30001;DHT22;16845;48.670;9.000;2022-09-12T08:26:33;21.70;99.90
30001;DHT22;16845;48.670;9.000;2022-09-12T08:29:02;21.50;99.90
30001;DHT22;16845;48.670;9.000;2022-09-12T08:31:30;21.50;99.90
30001;DHT22;16845;48.670;9.000;2022-09-12T08:34:02;21.40;99.90
30001;DHT22;16845;48.670;9.000;2022-09-12T08:36:32;21.80;99.90
30001;DHT22;16845;48.670;9.000;2022-09-12T08:39:02;22.10;99.90
30001;DHT22;16845;48.670;9.000;2022-09-12T08:41:34;22.50;99.90
30001;DHT22;16845;48.670;9.000;2022-09-12T08:44:26;22.90;99.90
30001;DHT22;16845;48.670;9.000;2022-09-12T08:47:16;22.90;99.90
30001;DHT22;16845;48.670;9.000;2022-09-12T08:49:52;23.70;99.90
30001;DHT22;16845;48.670;9.000;2022-09-12T08:52:28;24.60;99.90
30001;DHT22;16845;48.670;9.000;2022-09-12T08:54:56;24.10;99.90
30001;DHT22;16845;48.670;9.000;2022-09-12T08:57:24;24.80;99.90
30001;DHT22;16845;48.670;9.000;2022-09-12T08:59:52;25.90;99.90
30001;DHT22;16845;48.670;9.000;2022-09-12T09:02:44;26.10;99.90
30001;DHT22;16845;48.670;9.000;2022-09-12T09:05:18;26.80;99.90
30001;DHT22;16845;48.670;9.000;2022-09-12T09:08:08;26.80;99.90
30001;DHT22;16845;48.670;9.000;2022-09-12T09:10:46;27.00;99.90
30001;DHT22;16845;48.670;9.000;2022-09-12T09:13:26;26.00;99.90
30001;DHT22;16845;48.670;9.000;2022-09-12T09:16:19;25.60;99.90
30001;DHT22;16845;48.670;9.000;2022-09-12T09:18:51;26.30;99.90
30001;DHT22;16845;48.670;9.000;2022-09-12T09:21:24;26.00;99.90
30001;DHT22;16845;48.670;9.000;2022-09-12T09:24:00;26.70;99.90
30001;DHT22;16845;48.670;9.000;2022-09-12T09:26:38;27.10;98.30
30001;DHT22;16845;48.670;9.000;2022-09-12T09:29:14;26.40;99.90
30001;DHT22;16845;48.670;9.000;2022-09-12T09:31:45;26.50;98.70
30001;DHT22;16845;48.670;9.000;2022-09-12T09:34:18;26.30;99.90
30001;DHT22;16845;48.670;9.000;2022-09-12T09:36:51;26.50;99.90
30001;DHT22;16845;48.670;9.000;2022-09-12T09:39:37;26.80;99.80
30001;DHT22;16845;48.670;9.000;2022-09-12T09:42:16;27.00;98.40
30001;DHT22;16845;48.670;9.000;2022-09-12T09:44:46;27.70;96.90
30001;DHT22;16845;48.670;9.000;2022-09-12T09:47:17;27.00;96.70
30001;DHT22;16845;48.670;9.000;2022-09-12T09:49:45;27.50;97.30
30001;DHT22;16845;48.670;9.000;2022-09-12T09:52:23;27.30;96.50
30001;DHT22;16845;48.670;9.000;2022-09-12T09:54:55;27.20;97.60
30001;DHT22;16845;48.670;9.000;2022-09-12T09:57:44;27.30;99.20
30001;DHT22;16845;48.670;9.000;2022-09-12T10:00:27;27.30;96.80
30001;DHT22;16845;48.670;9.000;2022-09-12T10:03:25;27.70;97.30
30001;DHT22;16845;48.670;9.000;2022-09-12T10:05:59;26.50;96.70
30001;DHT22;16845;48.670;9.000;2022-09-12T10:08:29;26.60;98.20
30001;DHT22;16845;48.670;9.000;2022-09-12T10:11:01;27.50;96.60
30001;DHT22;16845;48.670;9.000;2022-09-12T10:13:36;27.90;93.70
30001;DHT22;16845;48.670;9.000;2022-09-12T10:16:16;26.50;95.60
30001;DHT22;16845;48.670;9.000;2022-09-12T10:18:45;26.20;94.90
30001;DHT22;16845;48.670;9.000;2022-09-12T10:21:20;25.80;97.10
30001;DHT22;16845;48.670;9.000;2022-09-12T10:23:57;25.30;97.10
30001;DHT22;16845;48.670;9.000;2022-09-12T10:26:31;25.00;97.40
30001;DHT22;16845;48.670;9.000;2022-09-12T10:29:04;25.20;97.20
30001;DHT22;16845;48.670;9.000;2022-09-12T10:31:42;25.90;95.30
30001;DHT22;16845;48.670;9.000;2022-09-12T10:34:24;25.70;95.10
30001;DHT22;16845;48.670;9.000;2022-09-12T10:36:58;25.40;97.10
30001;DHT22;16845;48.670;9.000;2022-09-12T10:39:27;25.60;95.30
30001;DHT22;16845;48.670;9.000;2022-09-12T10:41:56;25.70;94.10
30001;DHT22;16845;48.670;9.000;2022-09-12T10:44:30;24.50;96.70
30001;DHT22;16845;48.670;9.000;2022-09-12T10:47:00;24.30;97.80
30001;DHT22;16845;48.670;9.000;2022-09-12T10:49:45;24.20;96.20
30001;DHT22;16845;48.670;9.000;2022-09-12T10:52:19;23.80;96.50
30001;DHT22;16845;48.670;9.000;2022-09-12T10:54:49;23.30;95.80
30001;DHT22;16845;48.670;9.000;2022-09-12T10:57:28;23.00;96.70
30001;DHT22;16845;48.670;9.000;2022-09-12T11:00:06;22.90;97.90
30001;DHT22;16845;48.670;9.000;2022-09-12T11:02:47;22.30;98.60
30001;DHT22;16845;48.670;9.000;2022-09-12T11:05:28;22.40;98.00
30001;DHT22;16845;48.670;9.000;2022-09-12T11:08:10;22.40;99.10
30001;DHT22;16845;48.670;9.000;2022-09-12T11:10:47;22.50;98.50
30001;DHT22;16845;48.670;9.000;2022-09-12T11:13:27;22.30;98.10
30001;DHT22;16845;48.670;9.000;2022-09-12T11:16:15;22.30;98.50
30001;DHT22;16845;48.670;9.000;2022-09-12T11:19:00;22.10;98.60
30001;DHT22;16845;48.670;9.000;2022-09-12T11:21:41;22.00;98.90
30001;DHT22;16845;48.670;9.000;2022-09-12T11:27:32;21.80;99.70
30001;DHT22;16845;48.670;9.000;2022-09-12T11:30:08;22.00;99.90
30001;DHT22;16845;48.670;9.000;2022-09-12T11:32:59;22.40;98.60
30001;DHT22;16845;48.670;9.000;2022-09-12T11:35:32;22.40;97.20
30001;DHT22;16845;48.670;9.000;2022-09-12T11:38:18;22.20;98.20
30001;DHT22;16845;48.670;9.000;2022-09-12T11:40:51;22.10;98.60
30001;DHT22;16845;48.670;9.000;2022-09-12T11:43:28;22.10;98.20
30001;DHT22;16845;48.670;9.000;2022-09-12T11:46:05;22.20;98.60
30001;DHT22;16845;48.670;9.000;2022-09-12T11:48:41;22.00;99.30
30001;DHT22;16845;48.670;9.000;2022-09-12T11:51:17;22.10;98.90
30001;DHT22;16845;48.670;9.000;2022-09-12T11:53:56;22.00;99.30
30001;DHT22;16845;48.670;9.000;2022-09-12T11:56:24;22.00;99.10
30001;DHT22;16845;48.670;9.000;2022-09-12T11:58:56;22.00;98.30
30001;DHT22;16845;48.670;9.000;2022-09-12T12:01:30;21.90;99.60
30001;DHT22;16845;48.670;9.000;2022-09-12T12:04:10;22.30;99.90
30001;DHT22;16845;48.670;9.000;2022-09-12T12:06:47;22.60;98.70
30001;DHT22;16845;48.670;9.000;2022-09-12T12:09:16;23.00;96.60
30001;DHT22;16845;48.670;9.000;2022-09-12T12:11:48;23.40;97.10
30001;DHT22;16845;48.670;9.000;2022-09-12T12:14:21;24.50;97.00
30001;DHT22;16845;48.670;9.000;2022-09-12T12:16:51;25.40;96.30
30001;DHT22;16845;48.670;9.000;2022-09-12T12:19:31;25.70;95.30
30001;DHT22;16845;48.670;9.000;2022-09-12T12:22:11;25.80;92.90
30001;DHT22;16845;48.670;9.000;2022-09-12T12:25:06;25.80;93.90
30001;DHT22;16845;48.670;9.000;2022-09-12T12:27:50;25.30;92.40
30001;DHT22;16845;48.670;9.000;2022-09-12T12:33:54;27.40;91.50
30001;DHT22;16845;48.670;9.000;2022-09-12T12:36:36;29.20;91.00
30001;DHT22;16845;48.670;9.000;2022-09-12T12:46:00;35.30;74.60
30001;DHT22;16845;48.670;9.000;2022-09-12T12:48:35;36.00;70.20
30001;DHT22;16845;48.670;9.000;2022-09-12T12:51:35;37.00;65.00
30001;DHT22;16845;48.670;9.000;2022-09-12T12:54:24;38.20;64.20
30001;DHT22;16845;48.670;9.000;2022-09-12T12:57:03;39.30;58.90
30001;DHT22;16845;48.670;9.000;2022-09-12T12:59:32;38.10;61.80
30001;DHT22;16845;48.670;9.000;2022-09-12T13:02:00;37.90;57.10
30001;DHT22;16845;48.670;9.000;2022-09-12T13:04:31;37.00;57.20
30001;DHT22;16845;48.670;9.000;2022-09-12T13:07:02;38.30;57.60
30001;DHT22;16845;48.670;9.000;2022-09-12T13:09:38;38.70;58.70
30001;DHT22;16845;48.670;9.000;2022-09-12T13:12:11;40.30;53.80
30001;DHT22;16845;48.670;9.000;2022-09-12T13:14:50;41.50;52.70
30001;DHT22;16845;48.670;9.000;2022-09-12T13:17:24;42.50;51.70
30001;DHT22;16845;48.670;9.000;2022-09-12T13:19:59;41.20;51.30
30001;DHT22;16845;48.670;9.000;2022-09-12T13:22:51;37.90;52.80
30001;DHT22;16845;48.670;9.000;2022-09-12T13:25:22;36.10;53.60
30001;DHT22;16845;48.670;9.000;2022-09-12T13:28:04;34.80;56.10
30001;DHT22;16845;48.670;9.000;2022-09-12T13:30:34;35.20;55.50
30001;DHT22;16845;48.670;9.000;2022-09-12T13:33:10;34.00;55.30
30001;DHT22;16845;48.670;9.000;2022-09-12T13:35:52;31.50;58.40
30001;DHT22;16845;48.670;9.000;2022-09-12T13:38:33;30.30;59.50
30001;DHT22;16845;48.670;9.000;2022-09-12T13:41:16;28.50;64.30
30001;DHT22;16845;48.670;9.000;2022-09-12T13:43:48;28.00;63.00
30001;DHT22;16845;48.670;9.000;2022-09-12T13:46:20;27.50;65.10
30001;DHT22;16845;48.670;9.000;2022-09-12T13:48:53;26.90;65.50
30001;DHT22;16845;48.670;9.000;2022-09-12T13:51:23;26.40;66.50
30001;DHT22;16845;48.670;9.000;2022-09-12T13:53:58;25.50;67.80
30001;DHT22;16845;48.670;9.000;2022-09-12T13:56:26;25.20;70.80
30001;DHT22;16845;48.670;9.000;2022-09-12T13:58:55;24.70;72.00
30001;DHT22;16845;48.670;9.000;2022-09-12T14:01:36;24.30;72.40
30001;DHT22;16845;48.670;9.000;2022-09-12T14:04:14;24.20;70.10
30001;DHT22;16845;48.670;9.000;2022-09-12T14:07:06;24.00;70.00
30001;DHT22;16845;48.670;9.000;2022-09-12T14:09:40;23.90;72.60
30001;DHT22;16845;48.670;9.000;2022-09-12T14:12:13;23.80;72.60
30001;DHT22;16845;48.670;9.000;2022-09-12T14:14:49;23.60;72.90
30001;DHT22;16845;48.670;9.000;2022-09-12T14:17:21;23.70;73.50
30001;DHT22;16845;48.670;9.000;2022-09-12T14:19:50;23.60;74.50
30001;DHT22;16845;48.670;9.000;2022-09-12T14:22:19;23.40;74.40
30001;DHT22;16845;48.670;9.000;2022-09-12T14:24:49;23.30;74.20
30001;DHT22;16845;48.670;9.000;2022-09-12T14:27:19;23.30;73.90
30001;DHT22;16845;48.670;9.000;2022-09-12T14:29:54;23.40;74.20
30001;DHT22;16845;48.670;9.000;2022-09-12T14:32:23;23.40;73.10
30001;DHT22;16845;48.670;9.000;2022-09-12T14:35:05;23.40;72.70
30001;DHT22;16845;48.670;9.000;2022-09-12T14:37:34;23.40;76.40
30001;DHT22;16845;48.670;9.000;2022-09-12T14:40:04;23.20;74.10
30001;DHT22;16845;48.670;9.000;2022-09-12T14:42:42;22.90;74.90
30001;DHT22;16845;48.670;9.000;2022-09-12T14:45:16;22.80;74.60
30001;DHT22;16845;48.670;9.000;2022-09-12T14:47:47;22.90;75.60
30001;DHT22;16845;48.670;9.000;2022-09-12T14:50:17;22.90;78.00
30001;DHT22;16845;48.670;9.000;2022-09-12T14:53:01;23.00;76.30
30001;DHT22;16845;48.670;9.000;2022-09-12T14:55:32;23.10;75.60
30001;DHT22;16845;48.670;9.000;2022-09-12T14:58:13;23.00;74.80
30001;DHT22;16845;48.670;9.000;2022-09-12T15:00:52;22.70;75.50
30001;DHT22;16845;48.670;9.000;2022-09-12T15:03:26;22.50;76.50
30001;DHT22;16845;48.670;9.000;2022-09-12T15:05:54;22.60;74.80
30001;DHT22;16845;48.670;9.000;2022-09-12T15:08:24;22.70;76.70
30001;DHT22;16845;48.670;9.000;2022-09-12T15:10:54;22.70;75.60
30001;DHT22;16845;48.670;9.000;2022-09-12T15:13:23;22.60;78.50
30001;DHT22;16845;48.670;9.000;2022-09-12T15:15:52;22.50;77.90
30001;DHT22;16845;48.670;9.000;2022-09-12T15:18:23;22.60;77.60
30001;DHT22;16845;48.670;9.000;2022-09-12T15:20:54;22.70;78.90
30001;DHT22;16845;48.670;9.000;2022-09-12T15:23:29;22.80;79.20
30001;DHT22;16845;48.670;9.000;2022-09-12T15:26:00;22.80;79.10
30001;DHT22;16845;48.670;9.000;2022-09-12T15:28:30;22.90;76.50
30001;DHT22;16845;48.670;9.000;2022-09-12T15:31:03;23.00;76.60
30001;DHT22;16845;48.670;9.000;2022-09-12T15:33:32;22.90;79.30
30001;DHT22;16845;48.670;9.000;2022-09-12T15:36:00;22.80;80.70
30001;DHT22;16845;48.670;9.000;2022-09-12T15:38:28;22.90;77.40
30001;DHT22;16845;48.670;9.000;2022-09-12T15:40:55;22.90;77.50
30001;DHT22;16845;48.670;9.000;2022-09-12T15:43:25;22.90;76.70
30001;DHT22;16845;48.670;9.000;2022-09-12T15:45:52;22.80;78.50
30001;DHT22;16845;48.670;9.000;2022-09-12T15:48:20;22.70;77.50
30001;DHT22;16845;48.670;9.000;2022-09-12T15:50:48;22.60;79.90
30001;DHT22;16845;48.670;9.000;2022-09-12T15:53:16;22.70;80.60
30001;DHT22;16845;48.670;9.000;2022-09-12T15:55:44;22.60;80.50
30001;DHT22;16845;48.670;9.000;2022-09-12T15:58:12;22.30;77.00
30001;DHT22;16845;48.670;9.000;2022-09-12T16:00:41;22.20;78.10
30001;DHT22;16845;48.670;9.000;2022-09-12T16:03:19;22.10;82.50
30001;DHT22;16845;48.670;9.000;2022-09-12T16:05:47;21.90;86.00
30001;DHT22;16845;48.670;9.000;2022-09-12T16:08:15;21.80;83.60
30001;DHT22;16845;48.670;9.000;2022-09-12T16:10:45;21.70;82.80
30001;DHT22;16845;48.670;9.000;2022-09-12T16:13:14;21.60;81.80
30001;DHT22;16845;48.670;9.000;2022-09-12T16:15:43;21.60;85.70
30001;DHT22;16845;48.670;9.000;2022-09-12T16:18:11;21.50;86.10
30001;DHT22;16845;48.670;9.000;2022-09-12T16:20:39;21.50;83.00